Time;durP1;ratioP1;P1;durP2;ratioP2;P2;SDS_P1;SDS_P2;PMS_P1;PMS_P2;Temp;Humidity;BMP_temperature;BMP_pressure;BME280_temperature;BME280_humidity;BME280_pressure;Samples;Min_cycle;Max_cycle;Signal;HPM_P1;HPM_P2
2021/08/07 00:00:58;;;;;;;1999.90;999.90;;;;;;;12.43;59.16;100115.19;5008947;27;99415;-73
2021/08/07 00:03:26;;;;;;;1999.90;999.90;;;;;;;12.42;59.19;100123.19;5009130;27;100002;-73
2021/08/07 00:05:54;;;;;;;1999.90;999.90;;;;;;;12.41;59.02;100116.03;5018267;27;97278;-74
2021/08/07 00:08:23;;;;;;;1999.90;999.90;;;;;;;12.42;58.99;100121.38;5011936;27;98232;-72
2021/08/07 00:10:51;;;;;;;1999.90;999.90;;;;;;;12.39;59.20;100125.81;5017956;27;99830;-72
2021/08/07 00:13:19;;;;;;;1999.90;999.90;;;;;;;12.37;59.03;100116.91;5016535;27;100622;-73
2021/08/07 00:15:47;;;;;;;1999.90;999.90;;;;;;;12.37;59.25;100124.91;5016688;27;97625;-73
2021/08/07 00:18:15;;;;;;;1999.90;999.90;;;;;;;12.32;59.19;100122.25;5015966;27;97384;-73
2021/08/07 00:20:43;;;;;;;1999.90;999.90;;;;;;;12.33;59.22;100121.34;5019043;27;100271;-74
2021/08/07 00:23:10;;;;;;;1999.90;999.90;;;;;;;12.30;59.11;100123.13;5014822;27;99475;-73
2021/08/07 00:25:39;;;;;;;1999.90;999.90;;;;;;;12.31;59.15;100127.59;4993445;28;96909;-74
2021/08/07 00:28:07;;;;;;;1999.90;999.90;;;;;;;12.28;59.16;100124.88;5012817;27;96888;-74
2021/08/07 00:30:35;;;;;;;1999.90;999.90;;;;;;;12.26;59.14;100122.22;5009513;27;99221;-74
2021/08/07 00:33:03;;;;;;;1999.90;999.90;;;;;;;12.26;59.12;100122.22;5001581;28;99649;-73
2021/08/07 00:35:32;;;;;;;1999.90;999.90;;;;;;;12.27;59.02;100131.13;4997732;27;97768;-73
2021/08/07 00:37:59;;;;;;;1999.90;999.90;;;;;;;12.25;58.98;100125.78;5014328;27;97052;-73
2021/08/07 00:40:28;;;;;;;1999.90;999.90;;;;;;;12.25;59.06;100124.88;4996638;27;99556;-74
2021/08/07 00:43:01;;;;;;;1999.90;999.90;;;;;;;12.24;59.11;100131.13;4995225;28;100475;-73
2021/08/07 00:45:38;;;;;;;1999.90;999.90;;;;;;;12.22;59.23;100131.09;5002040;28;96790;-73
2021/08/07 00:48:07;;;;;;;1999.90;999.90;;;;;;;12.22;59.26;100131.09;5014324;27;97963;-74
2021/08/07 00:50:45;;;;;;;1999.90;999.90;;;;;;;12.19;59.05;100136.41;5004250;28;100344;-73
2021/08/07 00:53:19;;;;;;;1999.90;999.90;;;;;;;12.16;59.13;100134.59;5019629;27;100800;-73
2021/08/07 00:55:49;;;;;;;1999.90;999.90;;;;;;;12.15;59.21;100140.81;5020254;27;97224;-73
2021/08/07 00:58:18;;;;;;;1999.90;999.90;;;;;;;12.14;59.04;100135.50;4998945;27;97248;-73
2021/08/07 01:00:50;;;;;;;1999.90;999.90;;;;;;;12.13;59.02;100137.25;4995808;28;99633;-73
2021/08/07 01:03:25;;;;;;;1999.90;999.90;;;;;;;12.13;59.31;100131.91;5021800;27;100516;-73
2021/08/07 01:05:57;;;;;;;1999.90;999.90;;;;;;;12.13;59.14;100131.00;5022292;27;97899;-74
2021/08/07 01:08:27;;;;;;;1999.90;999.90;;;;;;;12.12;59.03;100130.16;5032160;27;97336;-73
2021/08/07 01:11:08;;;;;;;1999.90;999.90;;;;;;;12.12;59.24;100127.47;5018470;27;99278;-73
2021/08/07 01:13:40;;;;;;;1999.90;999.90;;;;;;;12.11;59.22;100128.34;5019495;27;98810;-73
2021/08/07 01:16:12;;;;;;;1999.90;999.90;;;;;;;12.11;59.16;100125.69;5037066;27;97199;-73
2021/08/07 01:18:42;;;;;;;1999.90;999.90;;;;;;;12.12;59.19;100130.16;5005004;28;97630;-73
2021/08/07 01:21:15;;;;;;;1999.90;999.90;;;;;;;12.14;59.30;100128.34;5020586;27;101498;-74
2021/08/07 01:23:58;;;;;;;1999.90;999.90;;;;;;;12.16;59.11;100134.59;5004246;27;101780;-73
2021/08/07 01:26:32;;;;;;;1999.90;999.90;;;;;;;12.16;59.18;100123.91;5021967;27;97131;-72
2021/08/07 01:29:14;;;;;;;1999.90;999.90;;;;;;;12.14;59.02;100122.16;5033218;27;97452;-72
2021/08/07 01:31:47;;;;;;;1999.90;999.90;;;;;;;12.12;59.11;100118.59;5018429;27;98376;-73
2021/08/07 01:34:20;;;;;;;1999.90;999.90;;;;;;;12.10;59.08;100115.00;5021931;27;98989;-73
2021/08/07 01:36:49;;;;;;;1999.90;999.90;;;;;;;12.08;59.20;100101.69;5020120;27;97970;-73
2021/08/07 01:39:26;;;;;;;1999.90;999.90;;;;;;;12.11;59.20;100115.00;5018091;27;96981;-74
2021/08/07 01:41:54;;;;;;;1999.90;999.90;;;;;;;12.14;58.96;100108.81;4999319;28;100515;-74
2021/08/07 01:44:25;;;;;;;1999.90;999.90;;;;;;;12.14;58.91;100119.47;4999406;27;101869;-74
2021/08/07 01:46:58;;;;;;;1999.90;999.90;;;;;;;12.13;59.01;100107.91;5000316;28;97907;-74
2021/08/07 01:49:35;;;;;;;1999.90;999.90;;;;;;;12.11;59.26;100099.00;5002670;27;97063;-73
2021/08/07 01:52:07;;;;;;;1999.90;999.90;;;;;;;12.11;59.07;100101.69;5019480;27;99478;-74
2021/08/07 01:54:50;;;;;;;1999.90;999.90;;;;;;;12.11;58.91;100104.34;5035416;27;99151;-74
2021/08/07 01:57:21;;;;;;;1999.90;999.90;;;;;;;12.14;59.01;100101.69;5019949;27;97894;-73
2021/08/07 01:59:51;;;;;;;1999.90;999.90;;;;;;;12.16;58.87;100104.38;5017466;27;96820;-73
2021/08/07 02:02:20;;;;;;;1999.90;999.90;;;;;;;12.16;58.88;100101.72;5015535;27;97846;-74
2021/08/07 02:04:52;;;;;;;1999.90;999.90;;;;;;;12.18;58.75;100107.97;5019385;27;97446;-73
2021/08/07 02:07:27;;;;;;;1999.90;999.90;;;;;;;12.18;58.85;100107.97;5002155;27;98023;-74
2021/08/07 02:10:05;;;;;;;1999.90;999.90;;;;;;;12.17;58.97;100106.19;5018854;27;97292;-72
2021/08/07 02:12:36;;;;;;;1999.90;999.90;;;;;;;12.17;58.87;100112.41;5034073;27;98261;-73
2021/08/07 02:15:12;;;;;;;1999.90;999.90;;;;;;;12.16;58.76;100105.25;5019164;27;98888;-73
2021/08/07 02:17:42;;;;;;;1999.90;999.90;;;;;;;12.15;58.68;100102.59;5022001;27;97113;-74
2021/08/07 02:20:14;;;;;;;1999.90;999.90;;;;;;;12.13;59.00;100109.69;5018653;27;97811;-74
2021/08/07 02:22:43;;;;;;;1999.90;999.90;;;;;;;12.11;58.88;100106.13;5003833;28;99812;-74
2021/08/07 02:25:12;;;;;;;1999.90;999.90;;;;;;;12.08;58.85;100109.69;5036921;27;97963;-73
2021/08/07 02:27:52;;;;;;;1999.90;999.90;;;;;;;12.05;58.84;100119.44;5002734;27;97465;-74
2021/08/07 02:30:24;;;;;;;1999.90;999.90;;;;;;;12.03;58.78;100114.13;5035650;27;97422;-74
2021/08/07 02:32:54;;;;;;;1999.90;999.90;;;;;;;12.01;58.78;100126.53;5003044;28;100824;-74
2021/08/07 02:35:23;;;;;;;1999.90;999.90;;;;;;;11.99;58.76;100116.75;5002110;27;97777;-74
2021/08/07 02:37:54;;;;;;;1999.90;999.90;;;;;;;11.97;59.01;100111.41;5002694;28;96903;-74
2021/08/07 02:40:25;;;;;;;1999.90;999.90;;;;;;;11.95;58.76;100109.59;5002065;27;97780;-74
2021/08/07 02:42:57;;;;;;;1999.90;999.90;;;;;;;11.93;58.90;100112.25;5002836;28;100032;-74
2021/08/07 02:45:28;;;;;;;1999.90;999.90;;;;;;;11.93;58.77;100104.25;5001603;27;99449;-73
2021/08/07 02:47:55;;;;;;;1999.90;999.90;;;;;;;11.95;58.79;100107.84;5019829;27;98018;-73
2021/08/07 02:50:25;;;;;;;1999.90;999.90;;;;;;;11.96;58.82;100100.75;5018662;27;96929;-74
2021/08/07 02:52:54;;;;;;;1999.90;999.90;;;;;;;11.96;58.71;100098.06;5016598;27;98901;-73
2021/08/07 02:55:23;;;;;;;1999.90;999.90;;;;;;;11.98;58.67;100098.97;5018993;27;99150;-73
2021/08/07 02:58:01;;;;;;;1999.90;999.90;;;;;;;11.99;58.80;100098.97;5035322;27;97543;-73
2021/08/07 03:00:36;;;;;;;1999.90;999.90;;;;;;;11.99;58.78;100090.97;5002927;27;96905;-74
2021/08/07 03:03:05;;;;;;;1999.90;999.90;;;;;;;12.01;58.67;100090.97;5016671;27;98134;-74
2021/08/07 03:05:34;;;;;;;1999.90;999.90;;;;;;;12.02;58.82;100093.66;5018184;27;97567;-74
2021/08/07 03:08:03;;;;;;;1999.90;999.90;;;;;;;12.02;58.49;100093.66;5028325;27;97930;-72
2021/08/07 03:10:34;;;;;;;1999.90;999.90;;;;;;;12.02;58.64;100093.66;5017140;27;97742;-74
2021/08/07 03:13:03;;;;;;;1999.90;999.90;;;;;;;12.02;58.74;100090.97;5001194;28;99928;-74
2021/08/07 03:15:34;;;;;;;1999.90;999.90;;;;;;;12.05;58.74;100098.09;5017817;27;98333;-74
2021/08/07 03:18:02;;;;;;;1999.90;999.90;;;;;;;12.07;58.61;100099.00;5018873;27;97159;-74
2021/08/07 03:20:33;;;;;;;1999.90;999.90;;;;;;;12.08;58.68;100090.13;5005644;27;96890;-74
2021/08/07 03:23:08;;;;;;;1999.90;999.90;;;;;;;12.07;58.49;100089.22;4984043;28;100141;-73
2021/08/07 03:25:40;;;;;;;1999.90;999.90;;;;;;;12.06;58.70;100086.53;5035482;27;97797;-73
2021/08/07 03:28:14;;;;;;;1999.90;999.90;;;;;;;12.04;58.63;100093.66;4990777;27;97435;-73
2021/08/07 03:30:44;;;;;;;1999.90;999.90;;;;;;;12.02;58.67;100087.41;5002987;28;97360;-72
2021/08/07 03:33:12;;;;;;;1999.90;999.90;;;;;;;12.01;58.50;100088.31;4998400;27;99280;-74
2021/08/07 03:35:40;;;;;;;1999.90;999.90;;;;;;;12.02;58.67;100076.75;5018147;27;97594;-74
2021/08/07 03:38:08;;;;;;;1999.90;999.90;;;;;;;12.04;58.53;100088.31;5017454;27;96738;-74
2021/08/07 03:40:36;;;;;;;1999.90;999.90;;;;;;;12.04;58.52;100091.88;5017429;27;97223;-74
2021/08/07 03:43:11;;;;;;;1999.90;999.90;;;;;;;12.05;58.60;100095.44;5008416;27;97846;-73
2021/08/07 03:45:40;;;;;;;1999.90;999.90;;;;;;;12.04;58.57;100099.88;5001376;28;98636;-74
2021/08/07 03:48:10;;;;;;;1999.90;999.90;;;;;;;12.03;58.71;100100.78;4996150;28;96864;-74
2021/08/07 03:50:43;;;;;;;1999.90;999.90;;;;;;;12.04;58.65;100102.53;5017189;27;96903;-74
2021/08/07 03:53:15;;;;;;;1999.90;999.90;;;;;;;12.04;58.61;100104.31;5033333;27;99688;-74
2021/08/07 03:55:44;;;;;;;1999.90;999.90;;;;;;;12.04;58.53;100107.88;5034189;27;101908;-74
2021/08/07 03:58:12;;;;;;;1999.90;999.90;;;;;;;12.05;58.70;100112.31;5018484;27;97722;-73
2021/08/07 04:00:47;;;;;;;1999.90;999.90;;;;;;;12.05;58.34;100112.31;5026902;27;97731;-73
2021/08/07 04:03:25;;;;;;;1999.90;999.90;;;;;;;12.07;58.45;100115.88;5015499;27;99809;-74
2021/08/07 04:05:56;;;;;;;1999.90;999.90;;;;;;;12.08;58.58;100115.00;5001105;28;100422;-74
2021/08/07 04:08:24;;;;;;;1999.90;999.90;;;;;;;12.09;58.65;100118.53;5012996;27;97124;-74
2021/08/07 04:10:52;;;;;;;1999.90;999.90;;;;;;;12.06;58.62;100115.88;5012600;27;97869;-74
2021/08/07 04:13:20;;;;;;;1999.90;999.90;;;;;;;12.02;58.58;100117.66;5015064;27;97822;-74
2021/08/07 04:15:50;;;;;;;1999.90;999.90;;;;;;;11.98;58.81;100120.31;5012232;27;99373;-74
2021/08/07 04:18:18;;;;;;;1999.90;999.90;;;;;;;11.94;58.72;100118.50;5034570;27;96915;-74
2021/08/07 04:20:48;;;;;;;1999.90;999.90;;;;;;;11.90;58.64;100117.59;5000311;28;97286;-73
2021/08/07 04:23:17;;;;;;;1999.90;999.90;;;;;;;11.84;58.93;100122.88;5017804;27;101016;-74
2021/08/07 04:25:45;;;;;;;1999.90;999.90;;;;;;;11.81;58.72;100119.31;5016671;27;101632;-74
2021/08/07 04:28:13;;;;;;;1999.90;999.90;;;;;;;11.77;58.96;100121.06;5029137;27;97707;-73
2021/08/07 04:30:44;;;;;;;1999.90;999.90;;;;;;;11.75;59.11;100119.28;5017287;27;96998;-73
2021/08/07 04:33:12;;;;;;;1999.90;999.90;;;;;;;11.72;59.08;100122.81;5011866;27;100626;-73
2021/08/07 04:35:44;;;;;;;1999.90;999.90;;;;;;;11.68;59.00;100125.44;5001712;28;100541;-73
2021/08/07 04:38:20;;;;;;;1999.90;999.90;;;;;;;11.61;59.03;100116.53;5017917;27;97607;-74
2021/08/07 04:40:49;;;;;;;1999.90;999.90;;;;;;;11.57;59.07;100117.41;5020405;27;97342;-73
2021/08/07 04:43:23;;;;;;;1999.90;999.90;;;;;;;11.57;59.22;100116.50;5021195;27;97831;-74
2021/08/07 04:45:50;;;;;;;1999.90;999.90;;;;;;;11.57;59.03;100124.50;5004716;27;100506;-74
2021/08/07 04:48:19;;;;;;;1999.90;999.90;;;;;;;11.57;59.29;100116.50;5017345;27;97311;-73
2021/08/07 04:51:00;;;;;;;1999.90;999.90;;;;;;;11.56;59.10;100120.06;5019835;27;98102;-73
2021/08/07 04:53:33;;;;;;;1999.90;999.90;;;;;;;11.55;58.96;100121.81;5037735;27;98886;-73
2021/08/07 04:56:06;;;;;;;1999.90;999.90;;;;;;;11.53;58.89;100118.25;5037480;27;98188;-72
2021/08/07 04:58:34;;;;;;;1999.90;999.90;;;;;;;11.53;59.02;100123.56;5004946;28;97536;-74
2021/08/07 05:01:02;;;;;;;1999.90;999.90;;;;;;;11.54;59.06;100122.72;4998494;28;97990;-73
2021/08/07 05:03:30;;;;;;;1999.90;999.90;;;;;;;11.55;59.06;100115.59;5001147;27;98790;-73
2021/08/07 05:06:01;;;;;;;1999.90;999.90;;;;;;;11.56;58.98;100115.59;5033611;27;97663;-73
2021/08/07 05:08:30;;;;;;;1999.90;999.90;;;;;;;11.59;58.81;100118.31;5013886;27;96848;-73
2021/08/07 05:11:00;;;;;;;1999.90;999.90;;;;;;;11.58;58.84;100112.97;5001490;28;97179;-73
2021/08/07 05:13:28;;;;;;;1999.90;999.90;;;;;;;11.61;58.72;100127.19;5033685;27;98836;-74
2021/08/07 05:15:55;;;;;;;1999.90;999.90;;;;;;;11.62;58.96;100125.41;5018374;27;97153;-73
2021/08/07 05:18:24;;;;;;;1999.90;999.90;;;;;;;11.64;59.05;100132.53;5035570;27;97193;-73
2021/08/07 05:20:52;;;;;;;1999.90;999.90;;;;;;;11.65;58.81;100134.31;5022667;27;98201;-74
2021/08/07 05:23:20;;;;;;;1999.90;999.90;;;;;;;11.63;58.60;100128.09;5021388;27;100072;-74
2021/08/07 05:25:48;;;;;;;1999.90;999.90;;;;;;;11.66;58.57;100132.53;5003125;27;98654;-72
2021/08/07 05:28:17;;;;;;;1999.90;999.90;;;;;;;11.67;58.74;100139.66;5017639;27;97664;-73
2021/08/07 05:30:46;;;;;;;1999.90;999.90;;;;;;;11.68;58.62;100147.66;5037212;27;97766;-74
2021/08/07 05:33:15;;;;;;;1999.90;999.90;;;;;;;11.69;58.55;100138.78;5034050;27;97409;-72
2021/08/07 05:35:43;;;;;;;1999.90;999.90;;;;;;;11.72;58.50;100148.59;5033927;27;96752;-73
2021/08/07 05:38:13;;;;;;;1999.90;999.90;;;;;;;11.74;58.44;100145.03;5018073;27;97410;-74
2021/08/07 05:40:41;;;;;;;1999.90;999.90;;;;;;;11.76;58.28;100145.94;5001645;28;97257;-73
2021/08/07 05:43:09;;;;;;;1999.90;999.90;;;;;;;11.79;58.36;100145.06;5015527;27;99279;-73
2021/08/07 05:45:38;;;;;;;1999.90;999.90;;;;;;;11.83;58.39;100129.13;5021493;27;98626;-73
2021/08/07 05:48:06;;;;;;;1999.90;999.90;;;;;;;11.86;58.45;100133.56;5032014;27;97729;-74
2021/08/07 05:50:38;;;;;;;1999.90;999.90;;;;;;;11.89;58.31;100134.44;5021201;27;97241;-73
2021/08/07 05:53:06;;;;;;;1999.90;999.90;;;;;;;11.95;58.26;100129.16;5017560;27;100874;-73
2021/08/07 05:55:35;;;;;;;1999.90;999.90;;;;;;;11.99;58.10;100136.31;5003982;28;99637;-74
2021/08/07 05:58:03;;;;;;;1999.90;999.90;;;;;;;11.98;58.33;100137.16;5021804;27;97501;-73
2021/08/07 06:00:38;;;;;;;1999.90;999.90;;;;;;;12.02;58.12;100140.75;5016284;27;96957;-74
2021/08/07 06:03:06;;;;;;;1999.90;999.90;;;;;;;12.04;58.10;100128.31;5018851;27;99719;-74
2021/08/07 06:05:38;;;;;;;1999.90;999.90;;;;;;;12.07;57.87;100129.22;5003813;28;100316;-72
2021/08/07 06:08:08;;;;;;;1999.90;999.90;;;;;;;12.10;57.96;100129.25;5013901;27;97787;-72
2021/08/07 06:10:36;;;;;;;1999.90;999.90;;;;;;;12.11;58.06;100131.00;5016354;27;97093;-73
2021/08/07 06:13:04;;;;;;;1999.90;999.90;;;;;;;12.11;57.84;100123.00;5032224;27;98654;-74
2021/08/07 06:15:32;;;;;;;1999.90;999.90;;;;;;;12.15;57.78;100134.59;5018152;27;97995;-74
2021/08/07 06:18:03;;;;;;;1999.90;999.90;;;;;;;12.20;57.90;100126.66;5017420;27;98048;-73
2021/08/07 06:20:32;;;;;;;1999.90;999.90;;;;;;;12.24;57.78;100131.13;5005088;27;97884;-74
2021/08/07 06:23:00;;;;;;;1999.90;999.90;;;;;;;12.30;57.73;100132.03;5021544;27;101022;-74
2021/08/07 06:25:29;;;;;;;1999.90;999.90;;;;;;;12.36;57.69;100140.06;5014663;27;98639;-73
2021/08/07 06:27:58;;;;;;;1999.90;999.90;;;;;;;12.39;57.54;100128.50;5013392;27;97264;-74
2021/08/07 06:30:28;;;;;;;1999.90;999.90;;;;;;;12.43;57.64;100135.63;5003308;27;97877;-74
2021/08/07 06:33:03;;;;;;;1999.90;999.90;;;;;;;12.46;57.39;100117.84;5016704;27;99456;-73
2021/08/07 06:35:31;;;;;;;1999.90;999.90;;;;;;;12.50;57.51;100122.31;5001488;27;100278;-73
2021/08/07 06:37:59;;;;;;;1999.90;999.90;;;;;;;12.58;57.44;100130.34;5002583;28;97298;-74
2021/08/07 06:40:27;;;;;;;1999.90;999.90;;;;;;;12.63;57.20;100124.13;5003534;27;98195;-73
2021/08/07 06:42:55;;;;;;;1999.90;999.90;;;;;;;12.70;57.12;100135.69;5002415;28;99410;-73
2021/08/07 06:45:45;;;;;;;1999.90;999.90;;;;;;;12.80;57.17;100134.84;5035624;27;97823;-74
2021/08/07 06:48:17;;;;;;;1999.90;999.90;;;;;;;12.86;57.01;100133.06;5004939;27;97254;-73
2021/08/07 06:50:46;;;;;;;1999.90;999.90;;;;;;;12.95;56.84;100132.16;5016621;27;97372;-74
2021/08/07 06:53:20;;;;;;;1999.90;999.90;;;;;;;13.03;56.69;100130.44;5018560;27;99793;-73
2021/08/07 06:55:49;;;;;;;1999.90;999.90;;;;;;;13.07;56.83;100130.47;5018445;27;97559;-73
2021/08/07 06:58:19;;;;;;;1999.90;999.90;;;;;;;13.14;56.71;100128.66;5018530;27;97656;-73
2021/08/07 07:00:47;;;;;;;1999.90;999.90;;;;;;;13.23;56.58;100141.13;5013038;27;97533;-73
2021/08/07 07:03:15;;;;;;;1999.90;999.90;;;;;;;13.29;56.59;100134.03;5015706;27;98290;-74
2021/08/07 07:05:46;;;;;;;1999.90;999.90;;;;;;;13.35;56.39;100139.34;5015406;27;100436;-73
2021/08/07 07:08:14;;;;;;;1999.90;999.90;;;;;;;13.43;56.28;100142.00;5012498;27;97802;-74
2021/08/07 07:10:43;;;;;;;1999.90;999.90;;;;;;;13.48;56.25;100134.88;5019174;27;97753;-74
2021/08/07 07:13:11;;;;;;;1999.90;999.90;;;;;;;13.52;56.01;100140.22;5015609;27;99364;-74
2021/08/07 07:15:39;;;;;;;1999.90;999.90;;;;;;;13.52;56.00;100148.25;5019422;27;99468;-73
2021/08/07 07:18:07;;;;;;;1999.90;999.90;;;;;;;13.53;56.04;100143.81;5000496;28;97595;-72
2021/08/07 07:20:35;;;;;;;1999.90;999.90;;;;;;;13.54;55.95;100137.56;5018890;27;96916;-74
2021/08/07 07:23:07;;;;;;;1999.90;999.90;;;;;;;13.55;56.01;100137.53;5018543;27;99358;-72
2021/08/07 07:25:35;;;;;;;1999.90;999.90;;;;;;;13.55;56.02;100134.00;5033640;27;99540;-72
2021/08/07 07:28:04;;;;;;;1999.90;999.90;;;;;;;13.58;55.88;100129.53;4998190;28;98342;-74
2021/08/07 07:30:32;;;;;;;1999.90;999.90;;;;;;;13.66;55.83;100125.06;5013113;27;97934;-72
2021/08/07 07:33:00;;;;;;;1999.90;999.90;;;;;;;13.73;55.73;100128.63;5031876;27;99420;-74
2021/08/07 07:35:29;;;;;;;1999.90;999.90;;;;;;;13.79;55.66;100129.53;5014635;27;98880;-74
2021/08/07 07:37:58;;;;;;;1999.90;999.90;;;;;;;13.84;55.59;100126.84;4999644;28;97100;-74
2021/08/07 07:40:27;;;;;;;1999.90;999.90;;;;;;;13.90;55.56;100135.72;5002412;27;97646;-74
2021/08/07 07:42:55;;;;;;;1999.90;999.90;;;;;;;13.96;55.43;100132.16;5027360;27;99601;-73
2021/08/07 07:45:23;;;;;;;1999.90;999.90;;;;;;;14.01;55.48;100135.69;5002221;27;100986;-73
2021/08/07 07:47:51;;;;;;;1999.90;999.90;;;;;;;14.06;55.14;100140.13;5031675;27;97396;-73
2021/08/07 07:50:19;;;;;;;1999.90;999.90;;;;;;;14.12;55.25;100132.09;5000910;28;97868;-74
2021/08/07 07:52:53;;;;;;;1999.90;999.90;;;;;;;14.19;54.98;100129.41;5017805;27;97780;-72
2021/08/07 07:55:22;;;;;;;1999.90;999.90;;;;;;;14.24;55.11;100130.28;5000723;27;99205;-74
2021/08/07 07:57:51;;;;;;;1999.90;999.90;;;;;;;14.30;54.82;100130.25;5035141;27;97322;-74
2021/08/07 08:00:20;;;;;;;1999.90;999.90;;;;;;;14.39;54.83;100131.06;5012744;27;97902;-73
2021/08/07 08:02:54;;;;;;;1999.90;999.90;;;;;;;14.44;54.31;100123.94;5034235;27;98274;-74
2021/08/07 08:05:30;;;;;;;1999.90;999.90;;;;;;;14.47;54.32;100126.59;5029991;27;98037;-73
2021/08/07 08:08:00;;;;;;;1999.90;999.90;;;;;;;14.52;54.41;100127.44;5034389;27;96910;-73
2021/08/07 08:10:28;;;;;;;1999.90;999.90;;;;;;;14.58;54.41;100123.88;5017553;27;97035;-74
2021/08/07 08:12:57;;;;;;;1999.90;999.90;;;;;;;14.62;54.48;100123.88;4999722;28;99901;-74
2021/08/07 08:15:25;;;;;;;1999.90;999.90;;;;;;;14.70;54.41;100130.06;4999965;27;99819;-73
2021/08/07 08:17:53;;;;;;;1999.90;999.90;;;;;;;14.78;54.03;100130.00;5016475;27;97447;-74
2021/08/07 08:20:21;;;;;;;1999.90;999.90;;;;;;;14.84;53.91;100132.66;5016401;27;97417;-74
2021/08/07 08:22:49;;;;;;;1999.90;999.90;;;;;;;14.90;53.97;100133.50;5017024;27;97974;-73
2021/08/07 08:25:17;;;;;;;1999.90;999.90;;;;;;;14.95;53.77;100136.16;5016578;27;99244;-74
2021/08/07 08:27:45;;;;;;;1999.90;999.90;;;;;;;15.01;53.68;100141.44;5029537;27;97412;-74
2021/08/07 08:30:15;;;;;;;1999.90;999.90;;;;;;;15.06;53.56;100136.97;5009288;27;99125;-73
2021/08/07 08:32:45;;;;;;;1999.90;999.90;;;;;;;15.11;53.61;100125.31;5014616;27;99250;-72
2021/08/07 08:35:13;;;;;;;1999.90;999.90;;;;;;;15.15;53.21;100126.19;5014218;27;99227;-73
2021/08/07 08:37:42;;;;;;;1999.90;999.90;;;;;;;15.17;53.27;100119.88;5027993;27;98198;-74
2021/08/07 08:40:10;;;;;;;1999.90;999.90;;;;;;;15.25;53.13;100124.31;4997625;27;97508;-74
2021/08/07 08:42:38;;;;;;;1999.90;999.90;;;;;;;15.33;52.83;100120.69;5011850;27;100590;-74
2021/08/07 08:45:08;;;;;;;1999.90;999.90;;;;;;;15.37;52.92;100133.19;5017707;27;97805;-74
2021/08/07 08:47:38;;;;;;;1999.90;999.90;;;;;;;15.43;52.59;100126.88;4996306;28;97431;-74
2021/08/07 08:50:08;;;;;;;1999.90;999.90;;;;;;;15.48;52.47;100125.03;5019011;27;97923;-73
2021/08/07 08:52:37;;;;;;;1999.90;999.90;;;;;;;15.50;52.22;100118.72;5017900;27;97898;-74
2021/08/07 08:55:06;;;;;;;1999.90;999.90;;;;;;;15.57;52.01;100115.13;5016057;27;97847;-74
2021/08/07 08:57:34;;;;;;;1999.90;999.90;;;;;;;15.59;52.39;100121.34;5018107;27;96897;-73
2021/08/07 09:00:04;;;;;;;1999.90;999.90;;;;;;;15.63;52.24;100117.72;5013632;27;96956;-73
2021/08/07 09:02:34;;;;;;;1999.90;999.90;;;;;;;15.68;51.89;100113.22;5034389;27;98040;-74
2021/08/07 09:05:08;;;;;;;1999.90;999.90;;;;;;;15.74;51.69;100107.75;5010269;27;100735;-73
2021/08/07 09:07:37;;;;;;;1999.90;999.90;;;;;;;15.79;51.95;100100.56;5018073;27;98164;-74
2021/08/07 09:10:06;;;;;;;1999.90;999.90;;;;;;;15.85;51.91;100100.47;5001341;28;97194;-74
2021/08/07 09:12:42;;;;;;;1999.90;999.90;;;;;;;15.88;51.19;100094.22;5016728;27;99874;-73
2021/08/07 09:15:26;;;;;;;1999.90;999.90;;;;;;;15.90;51.30;100093.25;5032875;27;98110;-74
2021/08/07 09:18:20;;;;;;;1999.90;999.90;;;;;;;15.96;50.85;100095.00;5017072;27;96945;-74
2021/08/07 09:21:15;;;;;;;1999.90;999.90;;;;;;;16.02;51.15;100103.91;5014702;27;97251;-74
2021/08/07 09:23:49;;;;;;;1999.90;999.90;;;;;;;16.08;51.19;100097.56;5021571;27;99778;-74
2021/08/07 09:26:23;;;;;;;1999.90;999.90;;;;;;;16.09;51.15;100097.56;5018565;27;99064;-74
2021/08/07 09:28:59;;;;;;;1999.90;999.90;;;;;;;16.09;51.06;100092.19;5027685;27;97416;-74
2021/08/07 09:31:36;;;;;;;1999.90;999.90;;;;;;;16.13;50.63;100094.81;5020786;27;97220;-73
2021/08/07 09:34:20;;;;;;;1999.90;999.90;;;;;;;16.17;48.78;100096.56;5012276;27;99281;-73
2021/08/07 09:36:56;;;;;;;1999.90;999.90;;;;;;;16.21;50.08;100095.63;5019192;27;99374;-74
2021/08/07 09:39:38;;;;;;;1999.90;999.90;;;;;;;16.23;49.09;100085.75;5018273;27;97546;-73
2021/08/07 09:42:10;;;;;;;1999.90;999.90;;;;;;;16.27;49.90;100087.50;5021201;27;97810;-73
2021/08/07 09:44:38;;;;;;;1999.90;999.90;;;;;;;16.30;49.77;100082.09;5020773;27;99012;-74
2021/08/07 09:47:08;;;;;;;1999.90;999.90;;;;;;;16.34;49.54;100081.13;5016798;27;100451;-72
2021/08/07 09:49:39;;;;;;;1999.90;999.90;;;;;;;16.39;49.42;100074.81;5016553;27;97385;-73
2021/08/07 09:52:09;;;;;;;1999.90;999.90;;;;;;;16.46;49.08;100067.53;5019082;27;97326;-74
2021/08/07 09:54:38;;;;;;;1999.90;999.90;;;;;;;16.51;49.23;100071.03;5002796;28;98975;-74
2021/08/07 09:57:10;;;;;;;1999.90;999.90;;;;;;;16.55;48.80;100068.28;5018079;27;99383;-74
2021/08/07 09:59:47;;;;;;;1999.90;999.90;;;;;;;16.59;48.41;100070.03;5018620;27;97230;-74
2021/08/07 10:02:21;;;;;;;1999.90;999.90;;;;;;;16.66;48.59;100062.75;5035688;27;97844;-73
2021/08/07 10:04:53;;;;;;;1999.90;999.90;;;;;;;16.73;48.71;100061.78;5029745;27;97770;-73
2021/08/07 10:07:23;;;;;;;1999.90;999.90;;;;;;;16.80;48.46;100064.34;5015939;27;100582;-73
2021/08/07 10:10:19;;;;;;;1999.90;999.90;;;;;;;16.83;47.58;100066.13;5014816;27;96769;-72
2021/08/07 10:12:48;;;;;;;1999.90;999.90;;;;;;;16.88;48.21;100056.16;5016777;27;98504;-73
2021/08/07 10:15:23;;;;;;;1999.90;999.90;;;;;;;16.90;48.14;100066.00;5033724;27;98881;-74
2021/08/07 10:17:52;;;;;;;1999.90;999.90;;;;;;;16.91;48.05;100054.31;5034397;27;99258;-73
2021/08/07 10:20:20;;;;;;;1999.90;999.90;;;;;;;16.94;47.88;100058.78;5035597;27;98289;-74
2021/08/07 10:22:50;;;;;;;1999.90;999.90;;;;;;;16.93;45.43;100060.56;5004091;27;97277;-72
2021/08/07 10:25:18;;;;;;;1999.90;999.90;;;;;;;16.90;47.64;100044.50;5033992;27;100152;-73
2021/08/07 10:27:46;;;;;;;1999.90;999.90;;;;;;;16.92;47.62;100044.47;5015520;27;99684;-73
2021/08/07 10:30:15;;;;;;;1999.90;999.90;;;;;;;16.93;47.51;100063.25;5018930;27;97259;-74
2021/08/07 10:32:46;;;;;;;1999.90;999.90;;;;;;;16.96;47.41;100059.63;5032966;27;97339;-74
2021/08/07 10:35:16;;;;;;;1999.90;999.90;;;;;;;17.00;47.08;100050.59;5013215;27;100461;-73
2021/08/07 10:37:45;;;;;;;1999.90;999.90;;;;;;;17.05;47.09;100054.09;5002584;28;99838;-73
2021/08/07 10:40:14;;;;;;;1999.90;999.90;;;;;;;17.09;46.81;100050.44;5020138;27;97491;-74
2021/08/07 10:42:45;;;;;;;1999.90;999.90;;;;;;;17.15;46.65;100053.03;5013652;27;97141;-73
2021/08/07 10:45:14;;;;;;;1999.90;999.90;;;;;;;17.18;46.77;100061.06;5035690;27;97540;-73
2021/08/07 10:47:43;;;;;;;1999.90;999.90;;;;;;;17.19;46.20;100065.50;4998977;28;100599;-74
2021/08/07 10:50:37;;;;;;;1999.90;999.90;;;;;;;17.20;43.00;100080.72;5020571;27;97484;-73
2021/08/07 10:53:38;;;;;;;1999.90;999.90;;;;;;;17.26;44.89;100058.19;5000289;28;97358;-74
2021/08/07 10:56:07;;;;;;;1999.90;999.90;;;;;;;17.32;46.37;100050.03;5019796;27;98481;-73
2021/08/07 10:58:43;;;;;;;1999.90;999.90;;;;;;;17.36;43.41;100055.34;5018883;27;100541;-74
2021/08/07 11:01:31;;;;;;;1999.90;999.90;;;;;;;17.40;44.11;100051.69;5010678;27;97440;-74